Search for airport 
image banner adimage banner ad
image banner ad

SVHD - Corporacion Venezolana De Television

Located in El Recreo, Venezuela

ICAO - SVHD, IATA -

Data provided by Airmate  

General information

Coordinates: N10°30'47" W66°52'52"
Elevation is 264 feet MSL.
 
Rated:
View ratings: [VIEW]


View others Airports in Zulia

Operational data

Open for public use
Current time UTC:
Current local time:
METAR: SVFM 062202Z AUTO 00000KT NCD 25/20 Q1014
View NOTAMs / SUP AIP / TFR affecting this airport [VIEW]
Communications frequencies: [VIEW]

Runways:

RWY identifierQFULength (ft)Width (ft)SurfaceLDA (ft)
12118°308449ASP
30298°308449ASP

Airport contact information

Address: El Recreo Venezuela

Satellite view of SVHD